createdAt,value
2023-04-05T00:02:11.197Z,4.78
2023-04-05T00:04:42.877Z,4.84
2023-04-05T00:07:09.824Z,4.86
2023-04-05T00:09:36.924Z,4.94
2023-04-05T00:12:04.103Z,4.96
2023-04-05T00:14:50.702Z,4.97
2023-04-05T00:17:18.171Z,4.94
2023-04-05T00:20:07.937Z,4.98
2023-04-05T00:22:53.734Z,4.97
2023-04-05T00:25:22.217Z,4.94
2023-04-05T00:27:49.102Z,4.96
2023-04-05T00:30:21.378Z,4.93
2023-04-05T00:32:50.197Z,4.93
2023-04-05T00:35:17.798Z,4.93
2023-04-05T00:37:44.802Z,4.88
2023-04-05T00:40:12.216Z,4.87
2023-04-05T00:42:39.574Z,4.88
2023-04-05T00:45:09.129Z,4.86
2023-04-05T00:47:36.993Z,4.87
2023-04-05T00:50:04.122Z,4.88
2023-04-05T00:52:32.333Z,4.89
2023-04-05T00:54:59.592Z,4.85
2023-04-05T00:57:26.704Z,4.84
2023-04-05T00:59:53.734Z,4.81
2023-04-05T01:02:39.456Z,4.80
2023-04-05T01:05:19.727Z,4.80
2023-04-05T01:07:51.581Z,4.69
2023-04-05T01:10:22.626Z,4.67
2023-04-05T01:12:49.945Z,4.62
2023-04-05T01:15:19.172Z,4.61
2023-04-05T01:17:47.092Z,4.58
2023-04-05T01:20:15.265Z,4.64
2023-04-05T01:22:54.408Z,4.71
2023-04-05T01:25:53.025Z,4.70
2023-04-05T01:28:36.310Z,4.64
2023-04-05T01:31:18.298Z,4.61
2023-04-05T01:33:49.173Z,4.56
2023-04-05T01:36:43.108Z,4.55
2023-04-05T01:39:12.999Z,4.48
2023-04-05T01:41:44.174Z,4.47
2023-04-05T01:44:11.073Z,4.41
2023-04-05T01:46:38.248Z,4.40
2023-04-05T01:49:06.568Z,4.41
2023-04-05T01:51:33.515Z,4.41
2023-04-05T01:54:00.486Z,4.39
2023-04-05T01:56:27.527Z,4.40
2023-04-05T01:58:55.163Z,4.40
2023-04-05T02:01:22.322Z,4.33
2023-04-05T02:03:49.688Z,4.27
2023-04-05T02:06:16.758Z,4.21
2023-04-05T02:08:43.937Z,4.13
2023-04-05T02:11:11.305Z,4.05
2023-04-05T02:13:38.878Z,4.05
2023-04-05T02:16:06.305Z,4.08
2023-04-05T02:18:33.285Z,4.07
2023-04-05T02:21:08.617Z,4.09
2023-04-05T02:23:37.573Z,4.09
2023-04-05T02:26:04.602Z,4.16
2023-04-05T02:28:31.609Z,4.15
2023-04-05T02:30:58.534Z,4.12
2023-04-05T02:33:26.006Z,4.16
2023-04-05T02:35:54.009Z,4.12
2023-04-05T02:38:21.681Z,4.09
2023-04-05T02:40:49.377Z,4.01
2023-04-05T02:43:16.710Z,4.00
2023-04-05T02:45:46.295Z,4.03
2023-04-05T02:48:14.410Z,4.05
2023-04-05T02:50:41.853Z,4.01
2023-04-05T02:53:10.175Z,4.05
2023-04-05T02:55:42.333Z,4.08
2023-04-05T02:58:09.786Z,4.01
2023-04-05T03:00:42.396Z,3.95
2023-04-05T03:03:10.206Z,3.95
2023-04-05T03:05:43.468Z,3.99
2023-04-05T03:08:19.862Z,3.98
2023-04-05T03:10:58.288Z,3.99
2023-04-05T03:13:26.410Z,3.99
2023-04-05T03:15:55.325Z,4.07
2023-04-05T03:18:29.629Z,3.97
2023-04-05T03:21:04.643Z,4.09
2023-04-05T03:23:36.633Z,4.11
2023-04-05T03:26:05.183Z,4.22
2023-04-05T03:28:36.414Z,4.33
2023-04-05T03:31:06.447Z,4.26
2023-04-05T03:33:34.381Z,4.39
2023-04-05T03:36:02.510Z,4.42
2023-04-05T03:38:33.873Z,4.42
2023-04-05T03:41:27.457Z,4.44
2023-04-05T03:43:55.357Z,4.51
2023-04-05T03:46:23.579Z,4.56
2023-04-05T03:48:50.637Z,4.58
2023-04-05T03:51:19.076Z,4.66
2023-04-05T03:53:51.288Z,4.70
2023-04-05T03:56:18.979Z,4.77
2023-04-05T03:58:49.376Z,4.80
2023-04-05T04:01:19.470Z,4.88
2023-04-05T04:03:49.094Z,4.98
2023-04-05T04:06:20.005Z,5.05
2023-04-05T04:08:49.900Z,5.11
2023-04-05T04:11:16.975Z,5.19
2023-04-05T04:13:46.535Z,5.33
2023-04-05T04:16:26.073Z,5.44
2023-04-05T04:19:09.555Z,5.53
2023-04-05T04:21:56.153Z,5.59
2023-04-05T04:24:34.885Z,5.66
2023-04-05T04:27:22.170Z,5.73
2023-04-05T04:30:11.035Z,5.84
2023-04-05T04:33:09.984Z,5.95
2023-04-05T04:35:40.180Z,6.01
2023-04-05T04:38:26.782Z,6.05
2023-04-05T04:41:26.982Z,6.13
2023-04-05T04:44:31.418Z,6.18
2023-04-05T04:47:21.953Z,6.24
2023-04-05T04:50:13.099Z,6.31
2023-04-05T04:52:41.077Z,6.34
2023-04-05T04:55:16.639Z,6.36
2023-04-05T04:57:47.264Z,6.43
2023-04-05T05:00:18.290Z,6.49
2023-04-05T05:02:45.926Z,6.58
2023-04-05T05:05:16.295Z,6.67
2023-04-05T05:07:43.317Z,6.69
2023-04-05T05:10:11.778Z,6.81
2023-04-05T05:12:39.680Z,6.92
2023-04-05T05:15:07.327Z,7.05
2023-04-05T05:17:35.389Z,7.05
2023-04-05T05:20:11.333Z,7.14
2023-04-05T05:22:43.826Z,7.29
2023-04-05T05:25:12.630Z,7.43
2023-04-05T05:27:43.806Z,7.54
2023-04-05T05:30:11.638Z,7.65
2023-04-05T05:32:40.168Z,7.66
2023-04-05T05:35:11.208Z,7.73
2023-04-05T05:37:38.309Z,7.74
2023-04-05T05:40:05.743Z,7.78
2023-04-05T05:42:34.029Z,7.82
2023-04-05T05:45:05.857Z,7.97
2023-04-05T05:47:34.323Z,8.10
2023-04-05T05:50:01.859Z,8.25
2023-04-05T05:52:49.150Z,8.35
2023-04-05T05:55:16.176Z,8.41
2023-04-05T05:57:43.267Z,8.48
2023-04-05T06:00:10.777Z,8.55
2023-04-05T06:02:42.273Z,8.66
2023-04-05T06:05:09.757Z,8.77
2023-04-05T06:07:38.015Z,8.84
2023-04-05T06:10:06.361Z,8.93
2023-04-05T06:12:33.439Z,8.92
2023-04-05T06:15:01.539Z,9.08
2023-04-05T06:17:28.951Z,9.32
2023-04-05T06:19:55.993Z,9.36
2023-04-05T06:22:23.804Z,9.24
2023-04-05T06:24:59.775Z,9.26
2023-04-05T06:27:27.503Z,9.40
2023-04-05T06:29:56.821Z,9.56
2023-04-05T06:32:23.941Z,9.52
2023-04-05T06:34:53.874Z,9.50
2023-04-05T06:37:23.922Z,9.60
2023-04-05T06:39:57.007Z,9.71
2023-04-05T06:42:24.962Z,9.68
2023-04-05T06:44:59.385Z,9.67
2023-04-05T06:47:27.731Z,9.82
2023-04-05T06:49:54.679Z,9.84
2023-04-05T06:52:21.652Z,9.75
2023-04-05T06:54:48.579Z,9.68
2023-04-05T06:57:15.472Z,9.51
2023-04-05T06:59:42.429Z,9.62
2023-04-05T07:02:09.582Z,9.70
2023-04-05T07:04:37.239Z,9.79
2023-04-05T07:07:04.587Z,10.02
2023-04-05T07:09:50.456Z,10.30
2023-04-05T07:12:20.258Z,10.45
2023-04-05T07:14:47.519Z,10.49
2023-04-05T07:17:14.412Z,10.56
2023-04-05T07:19:41.623Z,10.81
2023-04-05T07:22:09.809Z,11.00
2023-04-05T07:24:36.815Z,11.05
2023-04-05T07:27:04.276Z,11.11
2023-04-05T07:29:38.335Z,11.32
2023-04-05T07:32:05.485Z,11.45
2023-04-05T07:34:32.547Z,11.62
2023-04-05T07:36:59.563Z,11.85
2023-04-05T07:39:27.623Z,12.04
2023-04-05T07:41:54.703Z,11.95
2023-04-05T07:44:40.693Z,11.86
2023-04-05T07:47:07.867Z,11.81
2023-04-05T07:49:38.198Z,11.96
2023-04-05T07:52:06.531Z,12.16
2023-04-05T07:54:33.942Z,12.38
2023-04-05T07:57:01.297Z,12.54
2023-04-05T07:59:28.396Z,12.62
2023-04-05T08:01:57.254Z,12.59
2023-04-05T08:04:29.178Z,12.86
2023-04-05T08:06:57.061Z,13.24
2023-04-05T08:09:23.983Z,13.48
2023-04-05T08:11:51.270Z,13.59
2023-04-05T08:14:18.357Z,13.56
2023-04-05T08:16:45.584Z,13.39
2023-04-05T08:19:15.526Z,13.81
2023-04-05T08:21:42.930Z,13.86
2023-04-05T08:24:09.943Z,13.90
2023-04-05T08:26:37.006Z,14.00
2023-04-05T08:29:04.114Z,14.31
2023-04-05T08:31:50.124Z,14.54
2023-04-05T08:34:20.190Z,14.77
2023-04-05T08:36:48.916Z,15.12
2023-04-05T08:39:16.060Z,15.36
2023-04-05T08:42:12.256Z,15.95
2023-04-05T08:47:23.823Z,16.52
2023-04-05T08:49:51.021Z,17.15
2023-04-05T08:52:18.780Z,16.77
2023-04-05T08:54:48.004Z,16.42
2023-04-05T08:57:16.434Z,16.83
2023-04-05T08:59:49.952Z,17.09
2023-04-05T09:02:19.940Z,17.33
2023-04-05T09:04:47.829Z,17.47
2023-04-05T09:07:15.584Z,17.81
2023-04-05T09:09:46.604Z,17.81
2023-04-05T09:12:16.786Z,17.74
2023-04-05T09:14:44.049Z,17.59
2023-04-05T09:17:13.686Z,17.45
2023-04-05T09:19:48.783Z,17.42
2023-04-05T09:22:21.481Z,17.51
2023-04-05T09:24:49.410Z,17.80
2023-04-05T09:27:23.999Z,18.08
2023-04-05T09:29:56.366Z,18.60
2023-04-05T09:32:29.527Z,18.90
2023-04-05T09:35:01.425Z,18.79
2023-04-05T09:37:55.290Z,18.63
2023-04-05T09:40:48.549Z,19.05
2023-04-05T09:43:37.636Z,19.20
2023-04-05T09:46:04.977Z,19.40
2023-04-05T09:48:49.523Z,19.80
2023-04-05T09:51:17.141Z,20.32
2023-04-05T09:54:05.210Z,20.08
2023-04-05T09:56:34.758Z,19.96
2023-04-05T09:59:12.322Z,20.07
2023-04-05T10:01:44.008Z,20.42
2023-04-05T10:04:11.425Z,20.36
2023-04-05T10:06:43.666Z,20.38
2023-04-05T10:09:11.878Z,20.22
2023-04-05T10:11:39.342Z,19.86
2023-04-05T10:14:09.595Z,19.68
2023-04-05T10:17:08.991Z,19.64
2023-04-05T10:20:09.563Z,20.65
2023-04-05T10:22:54.497Z,20.67
2023-04-05T10:25:33.656Z,20.76
2023-04-05T10:28:11.637Z,21.13
2023-04-05T10:30:46.114Z,21.03
2023-04-05T10:33:45.629Z,20.92
2023-04-05T10:36:40.425Z,21.10
2023-04-05T10:39:18.346Z,21.53
2023-04-05T10:41:50.881Z,21.83
2023-04-05T10:44:25.513Z,21.87
2023-04-05T10:46:54.953Z,22.00
2023-04-05T10:49:37.831Z,22.15
2023-04-05T10:52:04.901Z,22.22
2023-04-05T10:54:33.904Z,22.02
2023-04-05T10:57:09.666Z,21.95
2023-04-05T10:59:42.678Z,21.73
2023-04-05T11:02:10.819Z,21.99
2023-04-05T11:04:42.285Z,22.07
2023-04-05T11:07:21.749Z,22.05
2023-04-05T11:10:00.824Z,22.49
2023-04-05T11:12:46.790Z,22.32
2023-04-05T11:15:28.870Z,22.32
2023-04-05T11:18:33.215Z,22.46
2023-04-05T11:21:09.905Z,22.29
2023-04-05T11:24:07.304Z,22.71
2023-04-05T11:26:56.167Z,22.70
2023-04-05T11:29:52.258Z,23.14
2023-04-05T11:32:19.455Z,23.24
2023-04-05T11:35:02.628Z,23.06
2023-04-05T11:38:19.631Z,23.24
2023-04-05T11:40:48.167Z,23.24
2023-04-05T11:43:15.264Z,23.85
2023-04-05T11:45:48.717Z,23.62
2023-04-05T11:48:15.858Z,23.54
2023-04-05T11:50:43.072Z,23.76
2023-04-05T11:53:37.406Z,23.27
2023-04-05T11:56:10.156Z,23.22
2023-04-05T11:58:37.694Z,23.41
2023-04-05T12:01:14.608Z,23.41
2023-04-05T12:03:41.764Z,23.73
2023-04-05T12:06:27.859Z,23.58
2023-04-05T12:08:56.150Z,23.72
2023-04-05T12:11:25.856Z,23.77
2023-04-05T12:14:02.921Z,24.05
2023-04-05T12:16:31.889Z,24.10
2023-04-05T12:19:00.401Z,24.37
2023-04-05T12:21:30.675Z,24.65
2023-04-05T12:23:58.395Z,24.06
2023-04-05T12:26:26.446Z,24.05
2023-04-05T12:28:57.782Z,23.84
2023-04-05T12:31:40.011Z,23.83
2023-04-05T12:34:09.337Z,24.32
2023-04-05T12:36:37.075Z,24.63
2023-04-05T12:39:07.676Z,25.09
2023-04-05T12:41:37.734Z,25.15
2023-04-05T12:44:29.175Z,24.99
2023-04-05T12:47:02.329Z,24.67
2023-04-05T12:49:29.602Z,24.64
2023-04-05T12:52:03.057Z,24.95
2023-04-05T12:54:34.082Z,25.27
2023-04-05T12:57:04.528Z,25.30
2023-04-05T12:59:31.697Z,24.92
2023-04-05T13:02:00.754Z,25.07
2023-04-05T13:04:27.772Z,25.18
2023-04-05T13:06:58.896Z,24.63
2023-04-05T13:09:30.813Z,24.58
2023-04-05T13:15:19.913Z,24.52
2023-04-05T13:18:19.929Z,24.60
2023-04-05T13:24:43.105Z,25.03
2023-04-05T13:27:18.941Z,24.50
2023-04-05T13:30:04.330Z,24.48
2023-04-05T13:32:34.024Z,24.35
2023-04-05T13:35:02.038Z,23.90
2023-04-05T13:37:29.653Z,24.25
2023-04-05T13:39:56.694Z,24.90
2023-04-05T13:42:27.236Z,24.39
2023-04-05T13:44:54.453Z,24.59
2023-04-05T13:47:39.983Z,25.03
2023-04-05T13:50:07.590Z,25.00
2023-04-05T13:52:35.402Z,24.46
2023-04-05T13:55:03.791Z,23.72
2023-04-05T13:57:31.452Z,23.84
2023-04-05T13:59:58.650Z,23.82
2023-04-05T14:02:30.886Z,23.92
2023-04-05T14:05:01.444Z,24.34
2023-04-05T14:07:28.852Z,24.63
2023-04-05T14:09:59.420Z,24.11
2023-04-05T14:12:26.696Z,23.80
2023-04-05T14:14:56.521Z,23.86
2023-04-05T14:17:25.391Z,23.64
2023-04-05T14:19:55.538Z,23.27
2023-04-05T14:22:22.679Z,23.02
2023-04-05T14:24:50.367Z,22.56
2023-04-05T14:27:41.360Z,22.26
2023-04-05T14:30:11.210Z,22.68
2023-04-05T14:32:43.951Z,22.35
2023-04-05T14:35:11.483Z,22.08
2023-04-05T14:37:38.559Z,21.72
2023-04-05T14:40:08.855Z,21.57
2023-04-05T14:42:47.787Z,21.63
2023-04-05T14:45:16.723Z,21.13
2023-04-05T14:47:45.203Z,20.66
2023-04-05T14:50:13.956Z,20.50
2023-04-05T14:52:41.021Z,20.37
2023-04-05T14:55:08.465Z,20.77
2023-04-05T14:57:35.439Z,20.66
2023-04-05T15:00:02.972Z,20.35
2023-04-05T15:02:31.339Z,19.15
2023-04-05T15:05:01.450Z,17.84
2023-04-05T15:07:28.833Z,16.79
2023-04-05T15:09:55.943Z,16.20
2023-04-05T15:12:23.478Z,15.67
2023-04-05T15:14:54.547Z,15.21
2023-04-05T15:17:22.074Z,14.91
2023-04-05T15:19:49.142Z,14.75
2023-04-05T15:22:17.678Z,14.39
2023-04-05T15:24:44.720Z,14.03
2023-04-05T15:27:12.014Z,13.81
2023-04-05T15:29:42.060Z,13.52
2023-04-05T15:32:10.480Z,13.53
2023-04-05T15:34:40.448Z,13.25
2023-04-05T15:37:07.696Z,13.08
2023-04-05T15:39:37.103Z,12.83
2023-04-05T15:42:04.357Z,12.52
2023-04-05T15:44:31.392Z,12.38
2023-04-05T15:46:58.415Z,12.15
2023-04-05T15:49:25.563Z,12.01
2023-04-05T15:51:52.737Z,11.87
2023-04-05T15:54:21.157Z,11.89
2023-04-05T15:56:48.288Z,11.79
2023-04-05T15:59:15.569Z,11.67
2023-04-05T16:01:45.409Z,11.55
2023-04-05T16:04:12.616Z,11.46
2023-04-05T16:06:39.670Z,11.40
2023-04-05T16:09:06.770Z,11.21
2023-04-05T16:11:36.554Z,11.06
2023-04-05T16:14:06.450Z,11.09
2023-04-05T16:16:42.000Z,10.99
2023-04-05T16:19:17.062Z,10.79
2023-04-05T16:21:45.844Z,10.62
2023-04-05T16:24:12.870Z,10.52
2023-04-05T16:26:39.819Z,10.52
2023-04-05T16:29:07.316Z,10.42
2023-04-05T16:31:36.331Z,10.32
2023-04-05T16:34:03.556Z,10.33
2023-04-05T16:36:33.369Z,10.32
2023-04-05T16:39:00.675Z,10.19
2023-04-05T16:41:27.908Z,10.03
2023-04-05T16:43:55.575Z,9.92
2023-04-05T16:46:23.542Z,9.91
2023-04-05T16:48:52.316Z,9.78
2023-04-05T16:51:25.971Z,9.79
2023-04-05T16:53:53.864Z,9.75
2023-04-05T16:56:23.201Z,9.67
2023-04-05T16:58:51.666Z,9.60
2023-04-05T17:01:21.676Z,9.58
2023-04-05T17:03:49.326Z,9.49
2023-04-05T17:06:16.574Z,9.48
2023-04-05T17:08:46.496Z,9.40
2023-04-05T17:11:14.458Z,9.42
2023-04-05T17:13:42.186Z,9.34
2023-04-05T17:16:09.941Z,9.20
2023-04-05T17:18:37.060Z,9.16
2023-04-05T17:21:04.376Z,9.22
2023-04-05T17:23:31.569Z,9.23
2023-04-05T17:25:58.581Z,9.18
2023-04-05T17:28:27.281Z,9.09
2023-04-05T17:30:57.299Z,9.05
2023-04-05T17:33:24.409Z,9.04
2023-04-05T17:35:54.394Z,9.05
2023-04-05T17:38:21.450Z,8.99
2023-04-05T17:40:48.801Z,8.99
2023-04-05T17:43:18.052Z,8.95
2023-04-05T17:45:44.984Z,8.95
2023-04-05T17:48:12.038Z,8.86
2023-04-05T17:50:43.706Z,8.85
2023-04-05T17:53:11.372Z,8.81
2023-04-05T17:55:38.848Z,8.79
2023-04-05T17:58:08.413Z,8.80
2023-04-05T18:00:35.445Z,8.71
2023-04-05T18:03:07.514Z,8.70
2023-04-05T18:05:38.616Z,8.72
2023-04-05T18:08:05.768Z,8.71
2023-04-05T18:11:04.237Z,8.79
2023-04-05T18:13:32.253Z,8.70
2023-04-05T18:16:00.322Z,8.69
2023-04-05T18:18:28.113Z,8.68
2023-04-05T18:20:59.471Z,8.77
2023-04-05T18:23:27.300Z,8.57
2023-04-05T18:25:54.972Z,8.57
2023-04-05T18:28:23.631Z,8.52
2023-04-05T18:30:55.716Z,8.45
2023-04-05T18:33:22.990Z,8.35
2023-04-05T18:35:50.634Z,8.38
2023-04-05T18:38:18.318Z,8.32
2023-04-05T18:40:46.352Z,8.39
2023-04-05T18:43:13.700Z,8.30
2023-04-05T18:45:40.955Z,8.22
2023-04-05T18:48:15.921Z,8.24
2023-04-05T18:50:42.849Z,8.14
2023-04-05T18:53:10.076Z,8.13
2023-04-05T18:55:40.141Z,8.16
2023-04-05T18:58:07.152Z,8.12
2023-04-05T19:00:35.109Z,8.01
2023-04-05T19:03:02.291Z,8.04
2023-04-05T19:05:29.683Z,8.06
2023-04-05T19:07:56.751Z,7.92
2023-04-05T19:10:29.203Z,7.84
2023-04-05T19:12:59.446Z,7.75
2023-04-05T19:15:26.760Z,7.75
2023-04-05T19:17:53.924Z,7.74
2023-04-05T19:20:23.673Z,7.72
2023-04-05T19:22:50.793Z,7.68
2023-04-05T19:25:18.136Z,7.57
2023-04-05T19:27:45.077Z,7.65
2023-04-05T19:30:16.699Z,7.62
2023-04-05T19:32:43.842Z,7.58
2023-04-05T19:35:10.991Z,7.54
2023-04-05T19:37:38.148Z,7.50
2023-04-05T19:40:06.399Z,7.44
2023-04-05T19:42:33.345Z,7.40
2023-04-05T19:45:03.567Z,7.36
2023-04-05T19:47:31.553Z,7.23
2023-04-05T19:50:00.989Z,7.18
2023-04-05T20:04:54.877Z,6.89
2023-04-05T20:07:21.895Z,6.84
2023-04-05T20:09:52.547Z,6.72
2023-04-05T20:12:22.645Z,6.72
2023-04-05T20:14:50.733Z,6.70
2023-04-05T20:17:19.043Z,6.58
2023-04-05T20:19:57.751Z,6.61
2023-04-05T20:22:27.072Z,6.51
2023-04-05T20:24:54.156Z,6.47
2023-04-05T20:27:21.326Z,6.50
2023-04-05T20:29:48.424Z,6.44
2023-04-05T20:32:23.316Z,6.49
2023-04-05T20:34:50.477Z,6.34
2023-04-05T20:37:17.605Z,6.33
2023-04-05T20:39:44.556Z,6.24
2023-04-05T20:42:11.781Z,6.19
2023-04-05T20:44:38.790Z,6.13
2023-04-05T20:47:06.827Z,6.17
2023-04-05T20:49:41.318Z,6.12
2023-04-05T20:52:14.165Z,5.98
2023-04-05T20:54:44.277Z,5.96
2023-04-05T20:57:12.123Z,5.92
2023-04-05T20:59:39.232Z,5.86
2023-04-05T21:02:06.585Z,5.80
2023-04-05T21:04:40.142Z,5.63
2023-04-05T21:07:07.437Z,5.63
2023-04-05T21:09:34.697Z,5.74
2023-04-05T21:12:04.215Z,5.70
2023-04-05T21:14:31.210Z,5.67
2023-04-05T21:17:03.480Z,5.45
2023-04-05T21:19:30.782Z,5.39
2023-04-05T21:22:29.913Z,5.30
2023-04-05T21:24:59.880Z,5.38
2023-04-05T21:27:27.581Z,5.31
2023-04-05T21:29:54.639Z,5.30
2023-04-05T21:32:21.628Z,5.28
2023-04-05T21:34:48.688Z,5.29
2023-04-05T21:37:15.706Z,5.16
2023-04-05T21:39:42.878Z,5.19
2023-04-05T21:42:10.862Z,5.16
2023-04-05T21:44:37.796Z,5.13
2023-04-05T21:47:04.871Z,5.08
2023-04-05T21:49:31.854Z,5.01
2023-04-05T21:51:58.794Z,5.03
2023-04-05T21:54:25.856Z,4.99
2023-04-05T21:56:52.777Z,4.97
2023-04-05T21:59:19.785Z,4.91
2023-04-05T22:01:46.875Z,4.91
2023-04-05T22:04:13.830Z,4.81
2023-04-05T22:06:41.190Z,4.78
2023-04-05T22:09:08.267Z,4.73
2023-04-05T22:11:35.925Z,4.77
2023-04-05T22:14:03.411Z,4.75
2023-04-05T22:16:30.428Z,4.71
2023-04-05T22:18:57.413Z,4.67
2023-04-05T22:21:24.425Z,4.63
2023-04-05T22:23:51.657Z,4.60
2023-04-05T22:26:18.630Z,4.56
2023-04-05T22:28:45.603Z,4.54
2023-04-05T22:31:14.812Z,4.46
2023-04-05T22:33:41.926Z,4.46
2023-04-05T22:36:11.708Z,4.46
2023-04-05T22:38:38.786Z,4.47
2023-04-05T22:41:05.898Z,4.42
2023-04-05T22:43:33.255Z,4.42
2023-04-05T22:46:00.341Z,4.42
2023-04-05T22:48:27.640Z,4.40
2023-04-05T22:50:54.707Z,4.38
2023-04-05T22:53:22.604Z,4.35
2023-04-05T22:55:49.611Z,4.29
2023-04-05T22:58:17.426Z,4.31
2023-04-05T23:00:44.376Z,4.33
2023-04-05T23:03:11.471Z,4.31
2023-04-05T23:05:38.659Z,4.28
2023-04-05T23:08:05.942Z,4.25
2023-04-05T23:10:32.920Z,4.21
2023-04-05T23:12:59.923Z,4.21
2023-04-05T23:15:27.046Z,4.21
2023-04-05T23:17:54.238Z,4.18
2023-04-05T23:20:21.342Z,4.18
2023-04-05T23:22:48.432Z,4.09
2023-04-05T23:25:15.399Z,4.10
2023-04-05T23:27:42.457Z,4.07
2023-04-05T23:30:11.037Z,4.07
2023-04-05T23:32:38.157Z,4.04
2023-04-05T23:35:05.746Z,4.04
2023-04-05T23:37:32.667Z,4.03
2023-04-05T23:39:59.591Z,4.03
2023-04-05T23:42:26.678Z,3.99
2023-04-05T23:44:53.847Z,3.99
2023-04-05T23:47:20.900Z,4.01
2023-04-05T23:49:47.853Z,3.99
2023-04-05T23:52:14.845Z,4.00
2023-04-05T23:54:41.909Z,3.95
2023-04-05T23:57:08.869Z,3.93
2023-04-05T23:59:35.825Z,3.93
